sensor_id;sensor_type;location;lat;lon;timestamp;P1;durP1;ratioP1;P2;durP2;ratioP2
66830;SDS011;53739;44.224;22.528;2023-07-29T00:01:49;10.65;;;6.32;;
66830;SDS011;53739;44.224;22.528;2023-07-29T00:04:16;10.80;;;6.88;;
66830;SDS011;53739;44.224;22.528;2023-07-29T00:06:42;10.48;;;5.72;;
66830;SDS011;53739;44.224;22.528;2023-07-29T00:09:08;10.68;;;6.28;;
66830;SDS011;53739;44.224;22.528;2023-07-29T00:11:35;7.40;;;5.65;;
66830;SDS011;53739;44.224;22.528;2023-07-29T00:14:01;11.00;;;6.40;;
66830;SDS011;53739;44.224;22.528;2023-07-29T00:16:27;14.88;;;6.47;;
66830;SDS011;53739;44.224;22.528;2023-07-29T00:18:53;7.55;;;6.18;;
66830;SDS011;53739;44.224;22.528;2023-07-29T00:21:20;9.50;;;5.82;;
66830;SDS011;53739;44.224;22.528;2023-07-29T00:23:46;10.48;;;6.38;;
66830;SDS011;53739;44.224;22.528;2023-07-29T00:26:12;14.52;;;7.20;;
66830;SDS011;53739;44.224;22.528;2023-07-29T00:28:38;12.30;;;7.45;;
66830;SDS011;53739;44.224;22.528;2023-07-29T00:31:04;11.98;;;8.38;;
66830;SDS011;53739;44.224;22.528;2023-07-29T00:33:31;10.65;;;7.75;;
66830;SDS011;53739;44.224;22.528;2023-07-29T00:35:57;10.70;;;7.70;;
66830;SDS011;53739;44.224;22.528;2023-07-29T00:38:26;8.82;;;6.13;;
66830;SDS011;53739;44.224;22.528;2023-07-29T00:40:52;11.60;;;6.75;;
66830;SDS011;53739;44.224;22.528;2023-07-29T00:43:19;10.80;;;6.82;;
66830;SDS011;53739;44.224;22.528;2023-07-29T00:45:45;11.38;;;6.50;;
66830;SDS011;53739;44.224;22.528;2023-07-29T00:48:11;9.10;;;5.82;;
66830;SDS011;53739;44.224;22.528;2023-07-29T00:50:37;7.78;;;6.07;;
66830;SDS011;53739;44.224;22.528;2023-07-29T00:53:03;9.55;;;6.78;;
66830;SDS011;53739;44.224;22.528;2023-07-29T00:55:29;11.52;;;6.50;;
66830;SDS011;53739;44.224;22.528;2023-07-29T00:57:55;8.82;;;6.13;;
66830;SDS011;53739;44.224;22.528;2023-07-29T01:00:22;9.65;;;6.35;;
66830;SDS011;53739;44.224;22.528;2023-07-29T01:02:49;10.57;;;6.70;;
66830;SDS011;53739;44.224;22.528;2023-07-29T01:05:17;10.02;;;6.50;;
66830;SDS011;53739;44.224;22.528;2023-07-29T01:10:21;8.63;;;6.60;;
66830;SDS011;53739;44.224;22.528;2023-07-29T01:15:26;9.73;;;5.90;;
66830;SDS011;53739;44.224;22.528;2023-07-29T01:17:53;10.00;;;6.47;;
66830;SDS011;53739;44.224;22.528;2023-07-29T01:20:20;8.45;;;6.13;;
66830;SDS011;53739;44.224;22.528;2023-07-29T01:22:47;10.68;;;6.35;;
66830;SDS011;53739;44.224;22.528;2023-07-29T01:25:14;9.20;;;5.80;;
66830;SDS011;53739;44.224;22.528;2023-07-29T01:27:41;9.45;;;6.63;;
66830;SDS011;53739;44.224;22.528;2023-07-29T01:30:07;9.20;;;6.18;;
66830;SDS011;53739;44.224;22.528;2023-07-29T01:32:36;9.63;;;5.72;;
66830;SDS011;53739;44.224;22.528;2023-07-29T01:35:27;8.48;;;6.57;;
66830;SDS011;53739;44.224;22.528;2023-07-29T01:37:53;11.52;;;6.55;;
66830;SDS011;53739;44.224;22.528;2023-07-29T01:40:22;9.10;;;5.45;;
66830;SDS011;53739;44.224;22.528;2023-07-29T01:42:49;9.35;;;5.38;;
66830;SDS011;53739;44.224;22.528;2023-07-29T01:45:15;6.75;;;5.10;;
66830;SDS011;53739;44.224;22.528;2023-07-29T01:47:41;6.55;;;4.65;;
66830;SDS011;53739;44.224;22.528;2023-07-29T01:50:07;6.50;;;4.90;;
66830;SDS011;53739;44.224;22.528;2023-07-29T01:52:34;6.30;;;4.55;;
66830;SDS011;53739;44.224;22.528;2023-07-29T01:55:01;6.32;;;4.40;;
66830;SDS011;53739;44.224;22.528;2023-07-29T01:57:27;8.35;;;5.00;;
66830;SDS011;53739;44.224;22.528;2023-07-29T01:59:53;8.82;;;5.15;;
66830;SDS011;53739;44.224;22.528;2023-07-29T02:02:19;7.30;;;5.13;;
66830;SDS011;53739;44.224;22.528;2023-07-29T02:04:45;6.78;;;4.80;;
66830;SDS011;53739;44.224;22.528;2023-07-29T02:07:16;7.60;;;5.43;;
66830;SDS011;53739;44.224;22.528;2023-07-29T02:09:43;9.35;;;5.90;;
66830;SDS011;53739;44.224;22.528;2023-07-29T02:12:09;8.27;;;6.07;;
66830;SDS011;53739;44.224;22.528;2023-07-29T02:14:35;11.48;;;6.57;;
66830;SDS011;53739;44.224;22.528;2023-07-29T02:17:01;9.18;;;6.82;;
66830;SDS011;53739;44.224;22.528;2023-07-29T02:19:27;7.97;;;6.25;;
66830;SDS011;53739;44.224;22.528;2023-07-29T02:21:53;8.77;;;5.93;;
66830;SDS011;53739;44.224;22.528;2023-07-29T02:24:20;8.45;;;6.20;;
66830;SDS011;53739;44.224;22.528;2023-07-29T02:26:46;11.65;;;6.35;;
66830;SDS011;53739;44.224;22.528;2023-07-29T02:29:13;8.73;;;6.22;;
66830;SDS011;53739;44.224;22.528;2023-07-29T02:31:39;8.75;;;5.70;;
66830;SDS011;53739;44.224;22.528;2023-07-29T02:34:05;7.45;;;5.72;;
66830;SDS011;53739;44.224;22.528;2023-07-29T02:36:31;7.22;;;5.47;;
66830;SDS011;53739;44.224;22.528;2023-07-29T02:38:57;6.13;;;5.03;;
66830;SDS011;53739;44.224;22.528;2023-07-29T02:41:23;12.50;;;5.75;;
66830;SDS011;53739;44.224;22.528;2023-07-29T02:43:50;7.47;;;5.38;;
66830;SDS011;53739;44.224;22.528;2023-07-29T02:46:16;8.15;;;5.28;;
66830;SDS011;53739;44.224;22.528;2023-07-29T02:48:44;9.38;;;6.70;;
66830;SDS011;53739;44.224;22.528;2023-07-29T02:51:10;8.27;;;6.53;;
66830;SDS011;53739;44.224;22.528;2023-07-29T02:53:36;10.32;;;6.30;;
66830;SDS011;53739;44.224;22.528;2023-07-29T02:56:03;8.60;;;6.30;;
66830;SDS011;53739;44.224;22.528;2023-07-29T02:58:29;9.85;;;5.88;;
66830;SDS011;53739;44.224;22.528;2023-07-29T03:01:04;7.93;;;5.28;;
66830;SDS011;53739;44.224;22.528;2023-07-29T03:03:31;7.85;;;5.55;;
66830;SDS011;53739;44.224;22.528;2023-07-29T03:05:59;8.07;;;6.00;;
66830;SDS011;53739;44.224;22.528;2023-07-29T03:08:26;8.00;;;5.55;;
66830;SDS011;53739;44.224;22.528;2023-07-29T03:10:52;6.25;;;5.18;;
66830;SDS011;53739;44.224;22.528;2023-07-29T03:13:19;7.32;;;5.93;;
66830;SDS011;53739;44.224;22.528;2023-07-29T03:15:45;7.80;;;5.53;;
66830;SDS011;53739;44.224;22.528;2023-07-29T03:18:11;9.55;;;6.10;;
66830;SDS011;53739;44.224;22.528;2023-07-29T03:20:37;8.70;;;6.15;;
66830;SDS011;53739;44.224;22.528;2023-07-29T03:23:03;7.43;;;6.10;;
66830;SDS011;53739;44.224;22.528;2023-07-29T03:25:29;10.50;;;6.53;;
66830;SDS011;53739;44.224;22.528;2023-07-29T03:27:55;9.25;;;6.63;;
66830;SDS011;53739;44.224;22.528;2023-07-29T03:30:22;9.98;;;7.20;;
66830;SDS011;53739;44.224;22.528;2023-07-29T03:32:49;10.27;;;6.47;;
66830;SDS011;53739;44.224;22.528;2023-07-29T03:35:15;9.35;;;6.30;;
66830;SDS011;53739;44.224;22.528;2023-07-29T03:37:41;8.52;;;6.28;;
66830;SDS011;53739;44.224;22.528;2023-07-29T03:40:08;8.05;;;6.07;;
66830;SDS011;53739;44.224;22.528;2023-07-29T03:42:34;7.15;;;5.80;;
66830;SDS011;53739;44.224;22.528;2023-07-29T03:45:00;11.30;;;5.60;;
66830;SDS011;53739;44.224;22.528;2023-07-29T03:47:27;9.32;;;6.10;;
66830;SDS011;53739;44.224;22.528;2023-07-29T03:49:53;10.90;;;6.40;;
66830;SDS011;53739;44.224;22.528;2023-07-29T03:52:19;8.00;;;5.82;;
66830;SDS011;53739;44.224;22.528;2023-07-29T03:54:45;10.63;;;6.38;;
66830;SDS011;53739;44.224;22.528;2023-07-29T03:57:11;8.38;;;5.90;;
66830;SDS011;53739;44.224;22.528;2023-07-29T03:59:37;8.73;;;5.80;;
66830;SDS011;53739;44.224;22.528;2023-07-29T04:02:04;7.82;;;6.32;;
66830;SDS011;53739;44.224;22.528;2023-07-29T04:04:30;9.98;;;5.88;;
66830;SDS011;53739;44.224;22.528;2023-07-29T04:06:56;9.02;;;6.55;;
66830;SDS011;53739;44.224;22.528;2023-07-29T04:09:22;8.88;;;6.78;;
66830;SDS011;53739;44.224;22.528;2023-07-29T04:11:48;7.55;;;5.85;;
66830;SDS011;53739;44.224;22.528;2023-07-29T04:14:15;7.32;;;6.13;;
66830;SDS011;53739;44.224;22.528;2023-07-29T04:16:41;10.50;;;6.28;;
66830;SDS011;53739;44.224;22.528;2023-07-29T04:19:07;8.18;;;5.93;;
66830;SDS011;53739;44.224;22.528;2023-07-29T04:21:33;7.00;;;5.65;;
66830;SDS011;53739;44.224;22.528;2023-07-29T04:23:59;10.18;;;5.85;;
66830;SDS011;53739;44.224;22.528;2023-07-29T04:26:26;6.97;;;5.85;;
66830;SDS011;53739;44.224;22.528;2023-07-29T04:28:52;7.80;;;5.13;;
66830;SDS011;53739;44.224;22.528;2023-07-29T04:31:18;6.72;;;5.30;;
66830;SDS011;53739;44.224;22.528;2023-07-29T04:33:44;7.65;;;5.47;;
66830;SDS011;53739;44.224;22.528;2023-07-29T04:36:13;8.30;;;5.03;;
66830;SDS011;53739;44.224;22.528;2023-07-29T04:38:39;7.85;;;5.68;;
66830;SDS011;53739;44.224;22.528;2023-07-29T04:41:05;10.70;;;5.65;;
66830;SDS011;53739;44.224;22.528;2023-07-29T04:43:34;8.60;;;6.13;;
66830;SDS011;53739;44.224;22.528;2023-07-29T04:46:00;9.75;;;6.50;;
66830;SDS011;53739;44.224;22.528;2023-07-29T04:48:26;10.75;;;5.75;;
66830;SDS011;53739;44.224;22.528;2023-07-29T04:50:52;11.52;;;6.07;;
66830;SDS011;53739;44.224;22.528;2023-07-29T04:56:05;14.88;;;8.23;;
66830;SDS011;53739;44.224;22.528;2023-07-29T04:58:31;9.80;;;7.32;;
66830;SDS011;53739;44.224;22.528;2023-07-29T05:01:00;14.93;;;7.65;;
66830;SDS011;53739;44.224;22.528;2023-07-29T05:03:26;16.02;;;6.88;;
66830;SDS011;53739;44.224;22.528;2023-07-29T05:05:52;10.43;;;6.40;;
66830;SDS011;53739;44.224;22.528;2023-07-29T05:08:23;16.98;;;6.68;;
66830;SDS011;53739;44.224;22.528;2023-07-29T05:10:49;10.30;;;6.40;;
66830;SDS011;53739;44.224;22.528;2023-07-29T05:13:25;7.43;;;5.47;;
66830;SDS011;53739;44.224;22.528;2023-07-29T05:18:55;6.88;;;5.35;;
66830;SDS011;53739;44.224;22.528;2023-07-29T05:24:45;8.63;;;5.13;;
66830;SDS011;53739;44.224;22.528;2023-07-29T05:27:19;7.80;;;4.95;;
66830;SDS011;53739;44.224;22.528;2023-07-29T05:30:03;8.73;;;4.75;;
66830;SDS011;53739;44.224;22.528;2023-07-29T05:32:35;6.80;;;4.90;;
66830;SDS011;53739;44.224;22.528;2023-07-29T05:35:09;9.70;;;4.90;;
66830;SDS011;53739;44.224;22.528;2023-07-29T06:03:41;6.00;;;4.40;;
